sensor_id;sensor_type;location;lat;lon;timestamp;P1;durP1;ratioP1;P2;durP2;ratioP2
12912;SDS011;6524;51.368;11.984;2022-10-18T04:02:35;6.28;;;4.70;;
12912;SDS011;6524;51.368;11.984;2022-10-18T04:07:35;5.80;;;4.38;;
12912;SDS011;6524;51.368;11.984;2022-10-18T04:12:35;5.60;;;4.85;;
12912;SDS011;6524;51.368;11.984;2022-10-18T04:17:36;6.57;;;4.47;;
12912;SDS011;6524;51.368;11.984;2022-10-18T04:22:36;6.55;;;4.90;;
12912;SDS011;6524;51.368;11.984;2022-10-18T04:27:37;5.50;;;4.90;;
12912;SDS011;6524;51.368;11.984;2022-10-18T04:32:37;6.30;;;4.93;;
12912;SDS011;6524;51.368;11.984;2022-10-18T04:37:37;5.60;;;5.00;;
12912;SDS011;6524;51.368;11.984;2022-10-18T04:42:38;6.95;;;5.28;;
12912;SDS011;6524;51.368;11.984;2022-10-18T04:47:38;7.10;;;5.23;;
12912;SDS011;6524;51.368;11.984;2022-10-18T04:52:38;8.15;;;5.95;;
12912;SDS011;6524;51.368;11.984;2022-10-18T04:57:39;6.88;;;5.57;;
12912;SDS011;6524;51.368;11.984;2022-10-18T05:02:39;8.35;;;7.18;;
12912;SDS011;6524;51.368;11.984;2022-10-18T05:07:39;8.70;;;7.70;;
12912;SDS011;6524;51.368;11.984;2022-10-18T05:12:40;8.82;;;6.75;;
12912;SDS011;6524;51.368;11.984;2022-10-18T05:17:42;8.15;;;7.20;;
12912;SDS011;6524;51.368;11.984;2022-10-18T05:22:42;9.30;;;7.85;;
12912;SDS011;6524;51.368;11.984;2022-10-18T05:27:43;9.80;;;7.80;;
12912;SDS011;6524;51.368;11.984;2022-10-18T05:32:43;7.13;;;6.43;;
12912;SDS011;6524;51.368;11.984;2022-10-18T05:37:43;7.30;;;6.05;;
12912;SDS011;6524;51.368;11.984;2022-10-18T05:42:44;9.60;;;6.30;;
12912;SDS011;6524;51.368;11.984;2022-10-18T05:47:44;8.18;;;6.13;;
12912;SDS011;6524;51.368;11.984;2022-10-18T05:52:44;7.63;;;5.88;;
12912;SDS011;6524;51.368;11.984;2022-10-18T05:57:48;6.82;;;5.80;;
12912;SDS011;6524;51.368;11.984;2022-10-18T06:02:49;6.55;;;5.60;;
12912;SDS011;6524;51.368;11.984;2022-10-18T06:07:49;7.33;;;5.13;;
12912;SDS011;6524;51.368;11.984;2022-10-18T06:12:49;6.63;;;5.85;;
12912;SDS011;6524;51.368;11.984;2022-10-18T06:17:50;8.45;;;6.32;;
12912;SDS011;6524;51.368;11.984;2022-10-18T06:22:51;6.97;;;6.38;;
12912;SDS011;6524;51.368;11.984;2022-10-18T06:27:52;7.32;;;6.38;;
12912;SDS011;6524;51.368;11.984;2022-10-18T06:32:52;7.25;;;6.53;;
12912;SDS011;6524;51.368;11.984;2022-10-18T06:37:53;7.13;;;6.43;;
12912;SDS011;6524;51.368;11.984;2022-10-18T06:42:53;9.40;;;8.40;;
12912;SDS011;6524;51.368;11.984;2022-10-18T06:47:53;9.30;;;8.40;;
12912;SDS011;6524;51.368;11.984;2022-10-18T06:52:54;10.73;;;8.30;;
12912;SDS011;6524;51.368;11.984;2022-10-18T06:57:54;10.95;;;8.50;;
12912;SDS011;6524;51.368;11.984;2022-10-18T07:02:55;13.88;;;10.60;;
12912;SDS011;6524;51.368;11.984;2022-10-18T07:07:56;18.42;;;13.77;;
12912;SDS011;6524;51.368;11.984;2022-10-18T07:12:56;19.25;;;14.52;;
12912;SDS011;6524;51.368;11.984;2022-10-18T07:17:56;13.75;;;12.20;;
12912;SDS011;6524;51.368;11.984;2022-10-18T07:22:57;14.07;;;11.68;;
12912;SDS011;6524;51.368;11.984;2022-10-18T07:27:58;11.50;;;9.73;;
12912;SDS011;6524;51.368;11.984;2022-10-18T07:32:58;11.18;;;9.50;;
12912;SDS011;6524;51.368;11.984;2022-10-18T07:37:58;11.90;;;10.57;;
12912;SDS011;6524;51.368;11.984;2022-10-18T07:42:59;11.63;;;10.40;;
12912;SDS011;6524;51.368;11.984;2022-10-18T07:47:59;9.63;;;8.60;;
12912;SDS011;6524;51.368;11.984;2022-10-18T07:52:59;10.00;;;8.65;;
12912;SDS011;6524;51.368;11.984;2022-10-18T07:58:00;8.95;;;8.05;;
12912;SDS011;6524;51.368;11.984;2022-10-18T08:03:00;8.68;;;7.65;;
12912;SDS011;6524;51.368;11.984;2022-10-18T08:08:00;9.30;;;8.40;;
12912;SDS011;6524;51.368;11.984;2022-10-18T08:13:01;9.40;;;8.40;;
12912;SDS011;6524;51.368;11.984;2022-10-18T08:18:01;8.48;;;7.53;;
12912;SDS011;6524;51.368;11.984;2022-10-18T08:23:04;8.48;;;7.53;;
12912;SDS011;6524;51.368;11.984;2022-10-18T08:28:05;8.07;;;7.03;;
12912;SDS011;6524;51.368;11.984;2022-10-18T08:33:06;8.25;;;7.18;;
12912;SDS011;6524;51.368;11.984;2022-10-18T08:38:06;8.45;;;6.85;;
12912;SDS011;6524;51.368;11.984;2022-10-18T08:43:17;7.88;;;6.70;;
12912;SDS011;6524;51.368;11.984;2022-10-18T08:48:39;6.68;;;6.07;;
12912;SDS011;6524;51.368;11.984;2022-10-18T08:53:55;5.55;;;5.05;;
12912;SDS011;6524;51.368;11.984;2022-10-18T08:59:01;6.22;;;5.63;;
12912;SDS011;6524;51.368;11.984;2022-10-18T09:09:24;5.95;;;5.15;;
12912;SDS011;6524;51.368;11.984;2022-10-18T09:24:47;5.03;;;4.53;;
12912;SDS011;6524;51.368;11.984;2022-10-18T09:30:08;5.25;;;3.78;;
12912;SDS011;6524;51.368;11.984;2022-10-18T09:35:29;3.63;;;3.33;;
12912;SDS011;6524;51.368;11.984;2022-10-18T09:40:39;4.93;;;3.80;;
12912;SDS011;6524;51.368;11.984;2022-10-18T09:45:53;4.78;;;4.28;;
12912;SDS011;6524;51.368;11.984;2022-10-18T09:56:22;4.43;;;3.95;;
12912;SDS011;6524;51.368;11.984;2022-10-18T10:01:28;3.92;;;3.53;;
12912;SDS011;6524;51.368;11.984;2022-10-18T10:06:31;3.67;;;3.30;;
12912;SDS011;6524;51.368;11.984;2022-10-18T10:11:37;3.85;;;2.70;;
12912;SDS011;6524;51.368;11.984;2022-10-18T10:21:57;2.53;;;2.33;;
12912;SDS011;6524;51.368;11.984;2022-10-18T10:27:04;2.60;;;2.30;;
12912;SDS011;6524;51.368;11.984;2022-10-18T10:32:15;2.30;;;2.10;;
12912;SDS011;6524;51.368;11.984;2022-10-18T10:42:21;3.03;;;2.20;;
12912;SDS011;6524;51.368;11.984;2022-10-18T10:47:30;2.33;;;2.13;;
12912;SDS011;6524;51.368;11.984;2022-10-18T10:52:32;2.38;;;1.65;;
12912;SDS011;6524;51.368;11.984;2022-10-18T10:57:32;1.83;;;1.70;;
12912;SDS011;6524;51.368;11.984;2022-10-18T11:02:34;2.25;;;1.60;;
12912;SDS011;6524;51.368;11.984;2022-10-18T11:07:35;3.63;;;1.90;;
12912;SDS011;6524;51.368;11.984;2022-10-18T11:12:40;2.42;;;1.80;;
12912;SDS011;6524;51.368;11.984;2022-10-18T11:18:03;2.85;;;2.55;;
12912;SDS011;6524;51.368;11.984;2022-10-18T11:23:27;3.55;;;2.80;;
12912;SDS011;6524;51.368;11.984;2022-10-18T11:39:21;2.60;;;2.40;;
12912;SDS011;6524;51.368;11.984;2022-10-18T11:45:05;3.65;;;2.90;;
12912;SDS011;6524;51.368;11.984;2022-10-18T11:55:55;2.72;;;2.53;;
12912;SDS011;6524;51.368;11.984;2022-10-18T12:06:36;4.28;;;2.75;;
12912;SDS011;6524;51.368;11.984;2022-10-18T12:11:40;3.72;;;3.03;;
12912;SDS011;6524;51.368;11.984;2022-10-18T12:16:45;4.47;;;3.00;;
12912;SDS011;6524;51.368;11.984;2022-10-18T12:21:46;3.50;;;3.20;;
12912;SDS011;6524;51.368;11.984;2022-10-18T12:26:47;3.15;;;2.85;;
12912;SDS011;6524;51.368;11.984;2022-10-18T12:42:31;4.15;;;3.70;;
12912;SDS011;6524;51.368;11.984;2022-10-18T12:47:39;3.95;;;3.65;;
12912;SDS011;6524;51.368;11.984;2022-10-18T12:52:39;3.90;;;3.60;;
12912;SDS011;6524;51.368;11.984;2022-10-18T12:57:59;4.47;;;4.07;;
12912;SDS011;6524;51.368;11.984;2022-10-18T13:34:30;8.15;;;7.35;;
12912;SDS011;6524;51.368;11.984;2022-10-18T13:39:34;8.75;;;7.68;;
12912;SDS011;6524;51.368;11.984;2022-10-18T13:44:36;8.85;;;7.95;;
12912;SDS011;6524;51.368;11.984;2022-10-18T13:49:57;7.93;;;7.18;;
12912;SDS011;6524;51.368;11.984;2022-10-18T14:06:02;8.10;;;7.30;;
12912;SDS011;6524;51.368;11.984;2022-10-18T14:16:37;6.82;;;6.22;;
12912;SDS011;6524;51.368;11.984;2022-10-18T14:21:46;7.05;;;6.20;;
12912;SDS011;6524;51.368;11.984;2022-10-18T14:27:38;6.65;;;5.90;;
12912;SDS011;6524;51.368;11.984;2022-10-18T14:32:25;6.80;;;6.20;;
12912;SDS011;6524;51.368;11.984;2022-10-18T14:37:32;7.50;;;5.88;;
12912;SDS011;6524;51.368;11.984;2022-10-18T14:42:34;6.32;;;5.55;;
12912;SDS011;6524;51.368;11.984;2022-10-18T14:47:35;6.60;;;6.00;;
12912;SDS011;6524;51.368;11.984;2022-10-18T14:52:36;6.68;;;5.97;;
12912;SDS011;6524;51.368;11.984;2022-10-18T14:57:37;6.72;;;5.88;;
12912;SDS011;6524;51.368;11.984;2022-10-18T15:02:37;6.43;;;5.82;;
12912;SDS011;6524;51.368;11.984;2022-10-18T15:07:38;6.80;;;6.10;;
12912;SDS011;6524;51.368;11.984;2022-10-18T15:12:39;7.40;;;6.70;;
12912;SDS011;6524;51.368;11.984;2022-10-18T15:17:44;8.45;;;7.18;;
12912;SDS011;6524;51.368;11.984;2022-10-18T15:22:48;7.18;;;6.47;;
12912;SDS011;6524;51.368;11.984;2022-10-18T15:27:50;7.82;;;7.03;;
12912;SDS011;6524;51.368;11.984;2022-10-18T15:32:55;9.70;;;8.77;;
12912;SDS011;6524;51.368;11.984;2022-10-18T15:37:58;8.52;;;7.63;;
12912;SDS011;6524;51.368;11.984;2022-10-18T15:43:04;8.55;;;7.72;;
12912;SDS011;6524;51.368;11.984;2022-10-18T15:48:26;9.02;;;8.23;;
12912;SDS011;6524;51.368;11.984;2022-10-18T15:58:44;9.90;;;8.77;;
12912;SDS011;6524;51.368;11.984;2022-10-18T16:03:46;10.00;;;9.05;;
12912;SDS011;6524;51.368;11.984;2022-10-18T16:08:49;10.50;;;9.43;;
12912;SDS011;6524;51.368;11.984;2022-10-18T16:13:54;10.50;;;9.50;;
12912;SDS011;6524;51.368;11.984;2022-10-18T16:18:54;12.40;;;11.02;;
12912;SDS011;6524;51.368;11.984;2022-10-18T16:23:55;11.60;;;10.40;;
12912;SDS011;6524;51.368;11.984;2022-10-18T16:28:56;10.77;;;9.70;;
12912;SDS011;6524;51.368;11.984;2022-10-18T16:33:57;10.25;;;9.25;;
12912;SDS011;6524;51.368;11.984;2022-10-18T16:39:00;9.82;;;8.60;;
12912;SDS011;6524;51.368;11.984;2022-10-18T16:44:02;10.20;;;8.82;;
12912;SDS011;6524;51.368;11.984;2022-10-18T16:49:03;9.27;;;8.30;;
12912;SDS011;6524;51.368;11.984;2022-10-18T16:54:04;10.52;;;9.43;;
12912;SDS011;6524;51.368;11.984;2022-10-18T16:59:04;8.52;;;7.72;;
12912;SDS011;6524;51.368;11.984;2022-10-18T17:04:05;9.20;;;8.30;;
12912;SDS011;6524;51.368;11.984;2022-10-18T17:09:05;9.52;;;8.52;;
12912;SDS011;6524;51.368;11.984;2022-10-18T17:14:05;8.70;;;7.90;;
12912;SDS011;6524;51.368;11.984;2022-10-18T17:19:06;8.63;;;7.82;;
12912;SDS011;6524;51.368;11.984;2022-10-18T17:24:10;9.38;;;8.13;;
12912;SDS011;6524;51.368;11.984;2022-10-18T17:29:10;8.07;;;7.30;;
12912;SDS011;6524;51.368;11.984;2022-10-18T17:34:10;8.30;;;7.47;;
12912;SDS011;6524;51.368;11.984;2022-10-18T17:39:10;8.88;;;7.97;;
12912;SDS011;6524;51.368;11.984;2022-10-18T17:44:11;8.73;;;7.93;;
12912;SDS011;6524;51.368;11.984;2022-10-18T17:49:11;9.55;;;8.65;;
12912;SDS011;6524;51.368;11.984;2022-10-18T17:54:13;10.45;;;8.98;;
12912;SDS011;6524;51.368;11.984;2022-10-18T17:59:13;7.03;;;6.40;;
12912;SDS011;6524;51.368;11.984;2022-10-18T18:04:13;8.38;;;7.53;;
12912;SDS011;6524;51.368;11.984;2022-10-18T18:09:15;7.00;;;6.32;;
12912;SDS011;6524;51.368;11.984;2022-10-18T18:14:16;7.20;;;6.50;;
12912;SDS011;6524;51.368;11.984;2022-10-18T18:19:17;10.55;;;8.27;;
12912;SDS011;6524;51.368;11.984;2022-10-18T18:24:20;7.07;;;6.40;;
12912;SDS011;6524;51.368;11.984;2022-10-18T18:29:24;6.97;;;6.28;;
12912;SDS011;6524;51.368;11.984;2022-10-18T18:34:25;6.95;;;6.25;;
12912;SDS011;6524;51.368;11.984;2022-10-18T18:39:26;5.93;;;5.43;;
12912;SDS011;6524;51.368;11.984;2022-10-18T18:44:29;7.32;;;6.10;;
12912;SDS011;6524;51.368;11.984;2022-10-18T18:49:31;7.32;;;6.63;;
12912;SDS011;6524;51.368;11.984;2022-10-18T18:54:32;7.40;;;6.70;;
12912;SDS011;6524;51.368;11.984;2022-10-18T18:59:32;7.22;;;6.50;;
12912;SDS011;6524;51.368;11.984;2022-10-18T19:04:33;7.57;;;6.75;;
12912;SDS011;6524;51.368;11.984;2022-10-18T19:09:34;11.60;;;9.15;;
12912;SDS011;6524;51.368;11.984;2022-10-18T19:14:37;7.07;;;6.38;;
12912;SDS011;6524;51.368;11.984;2022-10-18T19:19:37;9.48;;;7.78;;
12912;SDS011;6524;51.368;11.984;2022-10-18T19:24:39;6.10;;;5.50;;
12912;SDS011;6524;51.368;11.984;2022-10-18T19:29:40;5.38;;;4.85;;
12912;SDS011;6524;51.368;11.984;2022-10-18T19:34:41;5.30;;;4.78;;
12912;SDS011;6524;51.368;11.984;2022-10-18T19:39:42;5.05;;;4.47;;
12912;SDS011;6524;51.368;11.984;2022-10-18T19:44:42;4.00;;;3.70;;
12912;SDS011;6524;51.368;11.984;2022-10-18T19:49:43;6.88;;;5.93;;
12912;SDS011;6524;51.368;11.984;2022-10-18T19:54:43;6.75;;;6.07;;
12912;SDS011;6524;51.368;11.984;2022-10-18T19:59:44;8.15;;;7.35;;
12912;SDS011;6524;51.368;11.984;2022-10-18T20:04:44;13.80;;;9.95;;
12912;SDS011;6524;51.368;11.984;2022-10-18T20:09:44;10.32;;;8.55;;
12912;SDS011;6524;51.368;11.984;2022-10-18T20:14:46;11.52;;;10.05;;
12912;SDS011;6524;51.368;11.984;2022-10-18T20:19:47;8.52;;;7.63;;
12912;SDS011;6524;51.368;11.984;2022-10-18T20:24:47;7.47;;;6.63;;
12912;SDS011;6524;51.368;11.984;2022-10-18T20:29:47;6.63;;;5.97;;
12912;SDS011;6524;51.368;11.984;2022-10-18T20:34:48;5.60;;;5.10;;
12912;SDS011;6524;51.368;11.984;2022-10-18T20:39:48;11.32;;;7.78;;
12912;SDS011;6524;51.368;11.984;2022-10-18T20:44:49;10.43;;;8.40;;
12912;SDS011;6524;51.368;11.984;2022-10-18T20:49:49;10.18;;;8.65;;
12912;SDS011;6524;51.368;11.984;2022-10-18T20:54:49;11.35;;;8.60;;
12912;SDS011;6524;51.368;11.984;2022-10-18T20:59:50;11.40;;;9.23;;
12912;SDS011;6524;51.368;11.984;2022-10-18T21:04:50;9.50;;;8.30;;
12912;SDS011;6524;51.368;11.984;2022-10-18T21:09:50;7.10;;;6.15;;
12912;SDS011;6524;51.368;11.984;2022-10-18T21:14:51;7.93;;;7.13;;
12912;SDS011;6524;51.368;11.984;2022-10-18T21:19:52;11.85;;;8.82;;
12912;SDS011;6524;51.368;11.984;2022-10-18T21:24:52;13.38;;;9.10;;
12912;SDS011;6524;51.368;11.984;2022-10-18T21:29:52;11.30;;;8.50;;
12912;SDS011;6524;51.368;11.984;2022-10-18T21:34:53;9.38;;;7.35;;
12912;SDS011;6524;51.368;11.984;2022-10-18T21:39:53;12.98;;;7.55;;
12912;SDS011;6524;51.368;11.984;2022-10-18T21:44:54;7.45;;;6.63;;
12912;SDS011;6524;51.368;11.984;2022-10-18T21:49:54;11.10;;;7.00;;
12912;SDS011;6524;51.368;11.984;2022-10-18T21:54:54;11.57;;;6.50;;
12912;SDS011;6524;51.368;11.984;2022-10-18T21:59:55;9.77;;;7.10;;
12912;SDS011;6524;51.368;11.984;2022-10-18T22:04:55;9.48;;;6.97;;
12912;SDS011;6524;51.368;11.984;2022-10-18T22:09:55;11.73;;;7.05;;
12912;SDS011;6524;51.368;11.984;2022-10-18T22:14:55;9.93;;;5.95;;
12912;SDS011;6524;51.368;11.984;2022-10-18T22:19:56;9.40;;;5.68;;
12912;SDS011;6524;51.368;11.984;2022-10-18T22:24:56;10.70;;;6.07;;
12912;SDS011;6524;51.368;11.984;2022-10-18T22:29:57;6.45;;;5.22;;
12912;SDS011;6524;51.368;11.984;2022-10-18T22:34:57;6.93;;;5.20;;
12912;SDS011;6524;51.368;11.984;2022-10-18T22:39:57;7.10;;;5.22;;
12912;SDS011;6524;51.368;11.984;2022-10-18T22:44:58;10.13;;;6.10;;
12912;SDS011;6524;51.368;11.984;2022-10-18T22:49:58;9.77;;;5.60;;
12912;SDS011;6524;51.368;11.984;2022-10-18T22:54:58;7.53;;;5.30;;
12912;SDS011;6524;51.368;11.984;2022-10-18T22:59:58;10.20;;;5.65;;
12912;SDS011;6524;51.368;11.984;2022-10-18T23:04:59;8.80;;;5.72;;
12912;SDS011;6524;51.368;11.984;2022-10-18T23:09:59;7.45;;;5.55;;
12912;SDS011;6524;51.368;11.984;2022-10-18T23:14:59;9.52;;;5.90;;
12912;SDS011;6524;51.368;11.984;2022-10-18T23:20:00;9.52;;;5.65;;
12912;SDS011;6524;51.368;11.984;2022-10-18T23:25:00;7.63;;;6.13;;
12912;SDS011;6524;51.368;11.984;2022-10-18T23:30:00;10.18;;;5.80;;
12912;SDS011;6524;51.368;11.984;2022-10-18T23:35:00;7.40;;;5.85;;
12912;SDS011;6524;51.368;11.984;2022-10-18T23:40:01;7.15;;;5.03;;
12912;SDS011;6524;51.368;11.984;2022-10-18T23:45:01;6.78;;;4.57;;
12912;SDS011;6524;51.368;11.984;2022-10-18T23:50:02;7.88;;;4.82;;
12912;SDS011;6524;51.368;11.984;2022-10-18T23:55:03;7.72;;;5.75;;
